Time;durP1;ratioP1;P1;durP2;ratioP2;P2;SDS_P1;SDS_P2;PMS_P1;PMS_P2;Temp;Humidity;BMP_temperature;BMP_pressure;BME280_temperature;BME280_humidity;BME280_pressure;Samples;Min_cycle;Max_cycle;Signal;HPM_P1;HPM_P2
2021/07/10 00:01:41;;;;;;;13.77;10.23;;;18.60;99.90;;;;;;6252867;23;20055;-81
2021/07/10 00:04:08;;;;;;;11.90;10.68;;;18.60;99.90;;;;;;6252092;22;20052;-81
2021/07/10 00:06:35;;;;;;;12.73;11.43;;;18.50;99.90;;;;;;6252948;23;20020;-81
2021/07/10 00:09:02;;;;;;;12.45;11.00;;;18.50;99.90;;;;;;6251564;23;20059;-81
2021/07/10 00:11:29;;;;;;;13.30;10.82;;;18.40;99.90;;;;;;6252920;23;20025;-81
2021/07/10 00:13:56;;;;;;;14.75;11.15;;;18.40;99.90;;;;;;6252741;22;20095;-81
2021/07/10 00:16:24;;;;;;;12.18;10.98;;;18.40;99.90;;;;;;6253571;23;20028;-81
2021/07/10 00:18:51;;;;;;;12.45;11.15;;;18.40;99.90;;;;;;6255226;23;20046;-81
2021/07/10 00:21:18;;;;;;;12.73;11.43;;;18.30;99.90;;;;;;6257270;23;20024;-80
2021/07/10 00:23:45;;;;;;;14.18;11.65;;;18.30;99.90;;;;;;6252657;22;20095;-81
2021/07/10 00:26:11;;;;;;;13.82;12.38;;;18.20;99.90;;;;;;6253130;23;20020;-81
2021/07/10 00:28:38;;;;;;;15.80;11.43;;;18.20;99.90;;;;;;6252622;23;20107;-81
2021/07/10 00:31:05;;;;;;;16.20;11.77;;;18.10;99.90;;;;;;6253522;23;20031;-80
2021/07/10 00:33:33;;;;;;;13.55;12.13;;;18.10;99.90;;;;;;6252998;22;20031;-79
2021/07/10 00:36:00;;;;;;;13.80;12.02;;;18.10;99.90;;;;;;6252307;23;20538;-81
2021/07/10 00:38:27;;;;;;;12.93;11.52;;;18.10;99.90;;;;;;6253669;23;20020;-78
2021/07/10 00:40:54;;;;;;;14.23;12.23;;;18.00;99.90;;;;;;6253560;23;20028;-80
2021/07/10 00:43:22;;;;;;;13.77;12.38;;;18.00;99.90;;;;;;6250877;23;20095;-80
2021/07/10 00:45:49;;;;;;;20.67;11.65;;;18.00;99.90;;;;;;6252066;22;20099;-80
2021/07/10 00:48:16;;;;;;;13.95;12.32;;;17.90;99.90;;;;;;6251255;23;20275;-79
2021/07/10 00:50:44;;;;;;;12.98;11.52;;;17.90;99.90;;;;;;6251627;23;20054;-80
2021/07/10 00:53:11;;;;;;;13.98;12.48;;;17.90;99.90;;;;;;6252818;23;20031;-80
2021/07/10 00:55:38;;;;;;;17.65;12.60;;;17.80;99.90;;;;;;6252994;22;20043;-81
2021/07/10 00:58:06;;;;;;;14.30;12.23;;;17.80;99.90;;;;;;6251617;23;20099;-80
2021/07/10 01:00:32;;;;;;;13.52;12.13;;;17.80;99.90;;;;;;6252753;23;20416;-78
2021/07/10 01:02:59;;;;;;;15.27;12.95;;;17.80;99.90;;;;;;6251419;23;20059;-79
2021/07/10 01:05:28;;;;;;;15.63;13.32;;;17.70;99.90;;;;;;6250266;22;20055;-79
2021/07/10 01:07:56;;;;;;;18.83;13.45;;;17.60;99.90;;;;;;6250635;23;20099;-80
2021/07/10 01:10:24;;;;;;;15.05;12.75;;;17.60;99.90;;;;;;6254299;23;20054;-79
2021/07/10 01:12:52;;;;;;;16.10;13.40;;;17.60;99.90;;;;;;6265462;23;20296;-79
2021/07/10 01:15:21;;;;;;;14.20;12.80;;;17.50;99.90;;;;;;6265361;22;20024;-79
2021/07/10 01:17:49;;;;;;;15.48;13.50;;;17.50;99.90;;;;;;6255658;23;20024;-79
2021/07/10 01:20:17;;;;;;;15.77;13.95;;;17.50;99.90;;;;;;6249370;23;20053;-79
2021/07/10 01:22:47;;;;;;;16.52;13.57;;;17.50;99.90;;;;;;6249013;23;20070;-80
2021/07/10 01:25:16;;;;;;;17.92;13.57;;;17.40;99.90;;;;;;6248384;22;20103;-80
2021/07/10 01:27:43;;;;;;;14.70;12.40;;;17.40;99.90;;;;;;6248549;23;20054;-79
2021/07/10 01:30:12;;;;;;;14.70;12.80;;;17.40;99.90;;;;;;6248702;23;20064;-83
2021/07/10 01:32:41;;;;;;;14.73;13.02;;;17.50;99.90;;;;;;6249214;23;20201;-82
2021/07/10 01:35:10;;;;;;;16.38;12.98;;;17.50;99.90;;;;;;6248817;22;20427;-81
2021/07/10 01:37:37;;;;;;;14.13;12.68;;;17.40;99.90;;;;;;6249319;23;20059;-82
2021/07/10 01:40:07;;;;;;;15.38;13.73;;;17.40;99.90;;;;;;6249528;23;20020;-82
2021/07/10 01:42:34;;;;;;;17.90;13.77;;;17.40;99.90;;;;;;6256394;23;20486;-81
2021/07/10 01:45:01;;;;;;;15.88;13.10;;;17.40;99.90;;;;;;6258408;22;20054;-81
2021/07/10 01:47:28;;;;;;;14.52;13.02;;;17.40;99.90;;;;;;6256419;23;20513;-81
2021/07/10 01:49:55;;;;;;;15.57;13.98;;;17.30;99.90;;;;;;6248546;23;20493;-80
2021/07/10 01:52:22;;;;;;;15.93;14.25;;;17.10;99.90;;;;;;6247703;23;20095;-80
2021/07/10 01:54:49;;;;;;;15.93;14.23;;;17.10;99.90;;;;;;6248516;22;20042;-80
2021/07/10 01:57:18;;;;;;;16.65;14.18;;;17.10;99.90;;;;;;6249719;23;20466;-80
2021/07/10 01:59:45;;;;;;;18.90;15.07;;;17.00;99.90;;;;;;6250329;23;20020;-81
2021/07/10 02:02:12;;;;;;;16.98;14.88;;;17.00;99.90;;;;;;6248926;23;20031;-81
2021/07/10 02:04:45;;;;;;;17.70;14.68;;;16.90;99.90;;;;;;6248658;22;20027;-81
2021/07/10 02:07:12;;;;;;;19.00;15.23;;;16.90;99.90;;;;;;6249085;23;20020;-81
2021/07/10 02:09:39;;;;;;;21.95;15.52;;;16.90;99.90;;;;;;6249020;23;20095;-79
2021/07/10 02:12:07;;;;;;;20.08;14.80;;;16.90;99.90;;;;;;6248735;23;20482;-81
2021/07/10 02:14:35;;;;;;;20.17;15.55;;;16.90;99.90;;;;;;6248701;22;20055;-83
2021/07/10 02:17:02;;;;;;;16.48;14.77;;;16.80;99.90;;;;;;6248989;23;20028;-81
2021/07/10 02:19:29;;;;;;;18.15;14.75;;;16.80;99.90;;;;;;6248895;23;20095;-80
2021/07/10 02:21:56;;;;;;;17.33;15.52;;;16.80;99.90;;;;;;6249255;23;20522;-79
2021/07/10 02:24:23;;;;;;;21.42;15.13;;;16.70;99.90;;;;;;6251891;22;20044;-80
2021/07/10 02:26:50;;;;;;;19.20;15.27;;;16.60;99.90;;;;;;6252090;23;20047;-81
2021/07/10 02:29:17;;;;;;;19.90;16.02;;;16.50;99.90;;;;;;6251257;23;20020;-81
2021/07/10 02:31:45;;;;;;;17.75;15.43;;;16.50;99.90;;;;;;6249584;23;20099;-80
2021/07/10 02:34:12;;;;;;;20.23;16.05;;;16.50;99.90;;;;;;6249631;22;20047;-80
2021/07/10 02:36:39;;;;;;;19.27;15.45;;;16.50;99.90;;;;;;6248631;23;20530;-80
2021/07/10 02:39:06;;;;;;;25.00;16.20;;;16.50;99.90;;;;;;6248818;23;20055;-81
2021/07/10 02:41:33;;;;;;;18.35;16.35;;;16.50;99.90;;;;;;6249108;23;20103;-81
2021/07/10 02:44:00;;;;;;;18.40;15.20;;;16.50;99.90;;;;;;6247999;22;20094;-81
2021/07/10 02:46:27;;;;;;;18.73;16.00;;;16.50;99.90;;;;;;6248052;23;20062;-80
2021/07/10 02:48:58;;;;;;;18.15;16.20;;;16.40;99.90;;;;;;6248530;23;20407;-81
2021/07/10 02:51:25;;;;;;;17.65;15.63;;;16.40;99.90;;;;;;6247319;23;20411;-81
2021/07/10 02:53:53;;;;;;;18.60;15.23;;;16.40;99.90;;;;;;6247910;22;20054;-80
2021/07/10 02:56:20;;;;;;;17.15;15.10;;;16.40;99.90;;;;;;6249866;23;20295;-79
2021/07/10 02:58:48;;;;;;;18.38;15.38;;;16.40;99.90;;;;;;6247832;23;20078;-80
2021/07/10 03:01:15;;;;;;;18.30;16.20;;;16.40;99.90;;;;;;6247412;23;20095;-80
2021/07/10 03:03:42;;;;;;;21.92;15.68;;;16.30;99.90;;;;;;6247314;22;20047;-79
2021/07/10 03:06:51;;;;;;;30.65;15.90;;;16.30;99.90;;;;;;6242942;22;20024;-79
2021/07/10 03:09:35;;;;;;;22.85;16.42;;;16.30;99.90;;;;;;6245151;23;20070;-78
2021/07/10 03:12:14;;;;;;;21.10;16.20;;;16.10;99.90;;;;;;6245291;23;20043;-78
2021/07/10 03:15:05;;;;;;;18.63;15.88;;;16.20;99.90;;;;;;6239106;22;20024;-78
2021/07/10 03:17:43;;;;;;;20.52;15.60;;;16.20;99.90;;;;;;6245761;23;20359;-79
2021/07/10 03:20:33;;;;;;;18.98;15.82;;;16.10;99.90;;;;;;6245716;23;20020;-78
2021/07/10 03:26:07;;;;;;;23.63;16.55;;;16.00;99.90;;;;;;6243349;22;20548;-77
2021/07/10 03:28:48;;;;;;;20.63;16.23;;;16.00;99.90;;;;;;6246608;23;20115;-78
2021/07/10 03:34:34;;;;;;;19.63;17.52;;;16.00;99.90;;;;;;6256372;22;20031;-84
2021/07/10 03:37:01;;;;;;;19.90;17.67;;;15.90;99.90;;;;;;6270231;23;20354;-80
2021/07/10 03:39:51;;;;;;;22.00;17.15;;;15.90;99.90;;;;;;6270918;23;20012;-80
2021/07/10 03:42:32;;;;;;;21.77;17.95;;;15.90;99.90;;;;;;6269024;23;20012;-79
2021/07/10 03:45:06;;;;;;;19.55;16.73;;;15.80;99.90;;;;;;6256530;22;20024;-79
2021/07/10 03:50:29;;;;;;;21.33;17.20;;;15.80;99.90;;;;;;6244870;23;20017;-79
2021/07/10 03:53:13;;;;;;;25.08;18.10;;;15.80;99.90;;;;;;6252347;23;20024;-77
2021/07/10 03:55:43;;;;;;;23.77;17.80;;;15.90;99.90;;;;;;6250063;22;20047;-80
2021/07/10 03:58:19;;;;;;;21.08;18.13;;;15.90;99.90;;;;;;6249620;23;20077;-80
2021/07/10 04:03:40;;;;;;;22.98;18.80;;;15.90;99.90;;;;;;6241515;23;20111;-78
2021/07/10 04:06:07;;;;;;;25.65;17.50;;;15.90;99.90;;;;;;6246042;22;20120;-78
2021/07/10 04:08:34;;;;;;;22.77;17.63;;;16.00;99.90;;;;;;6246690;23;20159;-78
2021/07/10 04:11:10;;;;;;;20.33;16.00;;;16.10;99.90;;;;;;6246909;23;20067;-78
2021/07/10 04:13:47;;;;;;;20.67;15.43;;;16.30;99.90;;;;;;6248582;23;20028;-77
2021/07/10 04:16:15;;;;;;;18.98;13.55;;;16.70;99.90;;;;;;6246665;22;20024;-78
2021/07/10 04:18:48;;;;;;;14.55;12.95;;;17.20;99.90;;;;;;6248834;23;20361;-78
2021/07/10 04:21:41;;;;;;;17.40;12.70;;;17.70;99.90;;;;;;6250686;23;20035;-79
2021/07/10 04:24:13;;;;;;;13.63;12.00;;;18.20;99.90;;;;;;6247619;22;20028;-78
2021/07/10 04:26:41;;;;;;;14.18;12.15;;;18.40;99.90;;;;;;6252398;23;20024;-79
2021/07/10 04:29:08;;;;;;;19.40;12.27;;;18.60;99.90;;;;;;6252485;23;20027;-80
2021/07/10 04:31:35;;;;;;;15.98;12.15;;;18.80;99.90;;;;;;6254209;23;20073;-80
2021/07/10 04:34:02;;;;;;;14.88;12.48;;;18.90;99.90;;;;;;6253504;23;20035;-80
2021/07/10 04:36:29;;;;;;;15.85;11.18;;;19.10;99.90;;;;;;6252072;23;20024;-79
2021/07/10 04:38:56;;;;;;;13.55;12.05;;;19.40;99.90;;;;;;6253364;23;20066;-80
2021/07/10 04:41:22;;;;;;;11.70;10.48;;;19.60;99.90;;;;;;6252701;23;20017;-80
2021/07/10 04:43:51;;;;;;;14.10;11.13;;;19.80;99.90;;;;;;6250539;23;20058;-79
2021/07/10 04:46:18;;;;;;;15.55;11.82;;;20.00;99.90;;;;;;6249975;22;20034;-80
2021/07/10 04:48:44;;;;;;;19.60;11.90;;;20.10;99.90;;;;;;6250646;23;20418;-79
2021/07/10 04:51:11;;;;;;;17.73;11.52;;;20.10;99.90;;;;;;6250458;23;20100;-80
2021/07/10 04:53:38;;;;;;;24.65;12.07;;;20.10;99.90;;;;;;6250066;23;20095;-79
2021/07/10 04:56:05;;;;;;;17.63;11.95;;;20.00;99.90;;;;;;6252060;22;20070;-80
2021/07/10 04:58:32;;;;;;;15.50;12.60;;;20.10;99.90;;;;;;6254173;23;20487;-81
2021/07/10 05:01:00;;;;;;;14.57;12.35;;;20.10;99.90;;;;;;6254229;23;20016;-81
2021/07/10 05:03:45;;;;;;;15.80;12.48;;;20.10;99.90;;;;;;6254152;23;20032;-80
2021/07/10 05:08:59;;;;;;;15.55;13.43;;;19.70;99.90;;;;;;6248591;23;20030;-80
2021/07/10 05:11:36;;;;;;;24.75;14.32;;;19.50;99.90;;;;;;6251699;23;20017;-80
2021/07/10 05:14:35;;;;;;;17.25;14.27;;;19.30;99.90;;;;;;6252780;23;20079;-81
2021/07/10 05:17:20;;;;;;;20.27;14.73;;;19.10;99.90;;;;;;6254869;23;20031;-80
2021/07/10 05:19:47;;;;;;;19.35;14.82;;;18.90;99.90;;;;;;6254505;23;20020;-81
2021/07/10 05:22:14;;;;;;;16.88;14.57;;;18.80;99.90;;;;;;6254576;23;20054;-81
2021/07/10 05:24:41;;;;;;;20.73;13.98;;;18.70;99.90;;;;;;6254307;22;20063;-81
2021/07/10 05:27:08;;;;;;;25.75;14.82;;;18.60;99.90;;;;;;6255233;23;20024;-81
2021/07/10 05:29:36;;;;;;;20.08;15.00;;;18.50;99.90;;;;;;6253925;23;20044;-81
2021/07/10 05:32:04;;;;;;;24.45;15.35;;;18.30;99.90;;;;;;6253495;23;20026;-81
2021/07/10 05:34:32;;;;;;;21.17;16.23;;;18.10;99.90;;;;;;6254100;22;20039;-82
2021/07/10 05:36:59;;;;;;;25.50;16.30;;;17.90;99.90;;;;;;6254614;23;20052;-82
2021/07/10 05:39:26;;;;;;;22.65;16.33;;;17.90;99.90;;;;;;6253809;23;20388;-81
2021/07/10 05:41:53;;;;;;;21.27;16.30;;;17.80;99.90;;;;;;6254126;23;20024;-82
2021/07/10 05:44:20;;;;;;;20.05;15.82;;;17.90;99.90;;;;;;6257928;22;20475;-82
2021/07/10 05:46:47;;;;;;;22.65;16.85;;;18.00;99.90;;;;;;6254295;23;20401;-81
2021/07/10 05:49:14;;;;;;;17.45;15.20;;;18.10;99.90;;;;;;6255694;23;20031;-82
2021/07/10 05:51:42;;;;;;;20.50;14.52;;;18.20;99.90;;;;;;6254665;23;20020;-81
2021/07/10 05:54:09;;;;;;;16.52;13.95;;;18.40;99.90;;;;;;6254236;22;20024;-80
2021/07/10 05:56:37;;;;;;;15.35;13.70;;;18.50;99.90;;;;;;6252676;23;20047;-82
2021/07/10 05:59:04;;;;;;;17.85;13.57;;;18.60;99.90;;;;;;6252328;23;20103;-81
2021/07/10 06:01:31;;;;;;;15.88;14.05;;;18.70;99.90;;;;;;6253345;23;20016;-82
2021/07/10 06:03:57;;;;;;;19.08;14.20;;;18.90;99.90;;;;;;6251734;23;20531;-81
2021/07/10 06:06:24;;;;;;;17.17;14.45;;;18.90;99.90;;;;;;6251680;22;20023;-80
2021/07/10 06:08:52;;;;;;;19.10;13.45;;;19.00;99.90;;;;;;6250739;23;20435;-80
2021/07/10 06:11:19;;;;;;;14.13;12.73;;;19.10;99.90;;;;;;6247660;23;20501;-77
2021/07/10 06:13:46;;;;;;;21.60;13.45;;;19.20;99.90;;;;;;6245086;23;20058;-79
2021/07/10 06:16:15;;;;;;;16.65;14.07;;;19.40;99.90;;;;;;6245095;22;20546;-78
2021/07/10 06:18:42;;;;;;;19.67;12.88;;;19.60;99.90;;;;;;6247623;23;20024;-78
2021/07/10 06:21:09;;;;;;;16.90;12.77;;;19.70;99.90;;;;;;6248795;23;20016;-79
2021/07/10 06:23:36;;;;;;;16.73;13.60;;;19.90;99.90;;;;;;6248591;23;20091;-80
2021/07/10 06:26:04;;;;;;;16.17;12.68;;;20.00;99.90;;;;;;6246862;22;20098;-79
2021/07/10 06:28:31;;;;;;;15.13;12.15;;;20.20;99.90;;;;;;6246736;23;20095;-78
2021/07/10 06:30:58;;;;;;;20.83;12.77;;;20.30;99.90;;;;;;6245362;23;20482;-78
2021/07/10 06:33:25;;;;;;;22.20;13.13;;;20.40;99.90;;;;;;6246047;23;20399;-79
2021/07/10 06:35:52;;;;;;;15.68;12.65;;;20.60;99.90;;;;;;6247688;22;20405;-80
2021/07/10 06:38:18;;;;;;;14.13;11.32;;;20.60;99.90;;;;;;6247189;23;20450;-79
2021/07/10 06:40:45;;;;;;;17.42;12.13;;;20.60;99.90;;;;;;6247602;23;20016;-80
2021/07/10 06:43:13;;;;;;;18.27;12.02;;;20.70;99.90;;;;;;6246930;23;20024;-79
2021/07/10 06:45:40;;;;;;;14.18;12.32;;;20.70;99.90;;;;;;6251098;22;20024;-80
2021/07/10 06:48:08;;;;;;;16.13;11.88;;;20.70;99.90;;;;;;6251518;23;20054;-80
2021/07/10 06:50:34;;;;;;;17.25;12.55;;;20.70;99.90;;;;;;6250272;23;20055;-80
2021/07/10 06:53:01;;;;;;;14.30;11.82;;;20.60;99.90;;;;;;6251095;23;20058;-80
2021/07/10 06:55:28;;;;;;;17.88;11.77;;;20.70;99.90;;;;;;6251388;22;20063;-79
2021/07/10 06:57:55;;;;;;;13.45;11.40;;;20.70;99.90;;;;;;6250728;23;20059;-80
2021/07/10 07:00:23;;;;;;;16.23;12.20;;;20.70;99.90;;;;;;6252523;23;20039;-79
2021/07/10 07:02:52;;;;;;;16.67;12.75;;;20.80;99.90;;;;;;6252669;23;20048;-79
2021/07/10 07:05:19;;;;;;;15.68;11.70;;;20.90;99.90;;;;;;6251795;22;20604;-80
2021/07/10 07:07:47;;;;;;;16.17;12.15;;;21.00;99.90;;;;;;6249032;23;20422;-79
2021/07/10 07:10:14;;;;;;;14.35;11.55;;;21.10;99.90;;;;;;6248468;23;20039;-79
2021/07/10 07:12:42;;;;;;;13.75;11.57;;;21.30;99.90;;;;;;6248339;23;20047;-79
2021/07/10 07:15:10;;;;;;;15.35;11.20;;;21.60;99.90;;;;;;6248504;22;20020;-78
2021/07/10 07:17:39;;;;;;;13.85;11.45;;;22.00;99.90;;;;;;6247239;23;20051;-77
2021/07/10 07:20:07;;;;;;;13.40;11.55;;;22.30;99.90;;;;;;6250128;23;20095;-78
2021/07/10 07:22:34;;;;;;;13.77;10.82;;;22.50;99.90;;;;;;6249485;23;20467;-78
2021/07/10 07:30:57;;;;;;;18.60;13.02;;;23.80;99.90;;;;;;6191515;23;20032;-77
2021/07/10 07:33:42;;;;;;;16.10;13.32;;;24.10;99.90;;;;;;6247280;23;20023;-76
2021/07/10 07:36:09;;;;;;;16.20;14.45;;;24.10;99.90;;;;;;6248313;22;20023;-78
2021/07/10 07:39:07;;;;;;;15.88;14.05;;;23.70;99.90;;;;;;6250566;23;20035;-78
2021/07/10 07:44:42;;;;;;;18.75;13.95;;;23.70;99.90;;;;;;6248192;22;20129;-78
2021/07/10 07:50:43;;;;;;;22.27;14.63;;;23.70;99.90;;;;;;6164818;23;20461;-78
2021/07/10 07:53:28;;;;;;;18.95;14.73;;;23.80;99.90;;;;;;6204015;23;20024;-79
2021/07/10 07:56:31;;;;;;;19.83;15.00;;;23.90;99.90;;;;;;6246221;22;20020;-78
2021/07/10 07:59:09;;;;;;;22.15;15.40;;;23.60;99.90;;;;;;6247459;23;20402;-78
2021/07/10 08:05:42;;;;;;;20.25;16.98;;;23.20;99.90;;;;;;6153198;23;20017;-78
2021/07/10 08:08:36;;;;;;;19.33;16.75;;;23.00;99.90;;;;;;6153130;23;20057;-80
2021/07/10 08:11:26;;;;;;;22.45;15.40;;;22.90;99.90;;;;;;6247380;23;20024;-79
2021/07/10 08:13:55;;;;;;;18.08;16.10;;;23.10;99.90;;;;;;6249969;23;20096;-79
2021/07/10 08:16:25;;;;;;;19.60;16.02;;;23.20;99.90;;;;;;6247095;22;20098;-80
2021/07/10 08:18:56;;;;;;;18.33;16.42;;;23.10;99.90;;;;;;6248337;23;20481;-79
2021/07/10 08:21:27;;;;;;;19.45;16.45;;;23.10;99.90;;;;;;6248550;23;20016;-78
2021/07/10 08:23:54;;;;;;;18.38;15.05;;;22.90;99.90;;;;;;6247315;23;20103;-77
2021/07/10 08:26:22;;;;;;;17.02;14.85;;;23.00;99.90;;;;;;6246678;22;20028;-77
2021/07/10 08:28:49;;;;;;;17.30;14.98;;;23.20;99.90;;;;;;6246979;23;20035;-78
2021/07/10 08:31:19;;;;;;;18.30;14.95;;;23.10;99.90;;;;;;6246315;23;20040;-76
2021/07/10 08:33:48;;;;;;;18.35;15.55;;;23.30;99.90;;;;;;6247497;23;20062;-77
2021/07/10 08:36:15;;;;;;;18.42;14.27;;;23.40;99.90;;;;;;6246562;22;20466;-77
2021/07/10 08:38:43;;;;;;;19.23;14.90;;;23.70;99.90;;;;;;6246581;23;20219;-76
2021/07/10 08:41:12;;;;;;;17.13;15.18;;;23.80;99.90;;;;;;6246523;23;20040;-77
2021/07/10 08:43:43;;;;;;;15.77;13.50;;;24.10;99.90;;;;;;6245681;23;20071;-77
2021/07/10 08:46:12;;;;;;;14.00;12.60;;;24.30;99.90;;;;;;6246845;22;20103;-77
2021/07/10 08:48:39;;;;;;;15.65;13.57;;;24.70;99.90;;;;;;6248417;23;20024;-77
2021/07/10 08:51:08;;;;;;;15.73;13.65;;;24.70;99.90;;;;;;6246920;23;20067;-77
2021/07/10 08:53:35;;;;;;;16.88;12.98;;;24.60;99.90;;;;;;6247980;23;20100;-77
2021/07/10 08:56:04;;;;;;;15.20;13.60;;;24.80;99.90;;;;;;6248496;22;20024;-77
2021/07/10 08:58:31;;;;;;;16.63;13.60;;;24.70;99.90;;;;;;6248207;23;20095;-77
2021/07/10 09:00:57;;;;;;;15.25;12.90;;;24.90;99.90;;;;;;6248058;23;20056;-78
2021/07/10 09:03:24;;;;;;;16.30;13.38;;;25.00;99.90;;;;;;6246995;23;20103;-77
2021/07/10 09:05:53;;;;;;;14.27;11.65;;;25.00;99.90;;;;;;6246445;22;20127;-77
2021/07/10 09:08:22;;;;;;;15.25;12.90;;;24.90;99.90;;;;;;6248131;23;20336;-78
2021/07/10 09:10:58;;;;;;;12.40;11.10;;;24.80;99.90;;;;;;6254502;22;20028;-78
2021/07/10 09:13:37;;;;;;;12.50;11.20;;;24.80;99.90;;;;;;6245575;23;20098;-78
2021/07/10 09:16:08;;;;;;;12.02;10.73;;;24.80;99.90;;;;;;6246159;23;20024;-79
2021/07/10 09:18:40;;;;;;;12.40;9.82;;;24.80;99.90;;;;;;6245051;23;20028;-75
2021/07/10 09:21:07;;;;;;;11.90;9.45;;;24.80;99.90;;;;;;6244488;22;20034;-78
2021/07/10 09:23:39;;;;;;;15.15;9.27;;;24.70;99.90;;;;;;6242755;23;20099;-77
2021/07/10 09:26:22;;;;;;;10.40;9.15;;;24.60;99.90;;;;;;6245629;23;20031;-78
2021/07/10 09:29:07;;;;;;;11.75;9.77;;;24.70;99.90;;;;;;6245982;22;20533;-80
2021/07/10 09:31:36;;;;;;;12.13;9.70;;;25.00;99.90;;;;;;6246721;23;20099;-78
2021/07/10 09:34:07;;;;;;;10.30;9.23;;;25.00;99.90;;;;;;6244565;23;20485;-80
2021/07/10 09:36:35;;;;;;;14.20;9.80;;;24.90;99.90;;;;;;6244739;23;20046;-78
2021/07/10 09:39:02;;;;;;;12.40;8.57;;;24.80;99.90;;;;;;6245908;22;20062;-79
2021/07/10 09:41:32;;;;;;;9.57;8.40;;;24.80;99.90;;;;;;6246462;23;20017;-79
2021/07/10 09:44:07;;;;;;;12.02;8.65;;;24.90;99.90;;;;;;6244003;23;20103;-79
2021/07/10 09:46:34;;;;;;;10.43;8.68;;;25.10;99.90;;;;;;6244024;23;20058;-78
2021/07/10 09:49:27;;;;;;;17.02;10.07;;;25.30;99.90;;;;;;6242753;22;20103;-78
2021/07/10 09:52:12;;;;;;;11.75;10.07;;;25.50;99.90;;;;;;6242277;23;20070;-78
2021/07/10 09:54:41;;;;;;;13.05;9.77;;;25.40;99.90;;;;;;6242141;23;20115;-78
2021/07/10 09:57:20;;;;;;;16.10;9.70;;;25.60;99.90;;;;;;6243490;23;20138;-79
2021/07/10 09:59:51;;;;;;;11.57;8.85;;;25.70;99.90;;;;;;6243877;22;20523;-77
2021/07/10 10:02:30;;;;;;;13.80;9.30;;;25.80;99.90;;;;;;6241970;23;20024;-79
2021/07/10 10:05:02;;;;;;;10.73;8.90;;;25.60;99.90;;;;;;6243411;23;20076;-79
2021/07/10 10:07:29;;;;;;;9.60;7.65;;;25.80;99.90;;;;;;6243532;23;20051;-80
2021/07/10 10:09:57;;;;;;;9.88;7.90;;;26.00;99.90;;;;;;6243373;22;20020;-78
2021/07/10 10:12:25;;;;;;;10.68;8.63;;;26.00;99.90;;;;;;6242839;23;20016;-78
2021/07/10 10:14:57;;;;;;;10.00;8.30;;;25.90;99.90;;;;;;6244182;23;20020;-77
2021/07/10 10:17:25;;;;;;;11.32;8.82;;;26.10;99.90;;;;;;6242054;23;20020;-78
2021/07/10 10:19:53;;;;;;;14.50;9.30;;;26.20;99.90;;;;;;6242242;22;20020;-78
2021/07/10 10:22:21;;;;;;;10.93;9.07;;;26.30;99.90;;;;;;6243299;23;20020;-79
2021/07/10 10:24:51;;;;;;;10.48;8.55;;;26.30;99.90;;;;;;6239544;23;20324;-80
2021/07/10 10:27:18;;;;;;;10.32;8.27;;;26.20;99.90;;;;;;6243503;23;20418;-78
2021/07/10 10:29:46;;;;;;;9.70;8.10;;;26.20;99.90;;;;;;6243539;22;20176;-77
2021/07/10 10:32:14;;;;;;;9.40;8.10;;;26.30;99.90;;;;;;6243748;23;20047;-77
2021/07/10 10:34:42;;;;;;;9.05;7.93;;;26.20;99.90;;;;;;6244371;23;20359;-77
2021/07/10 10:37:11;;;;;;;10.35;7.60;;;26.20;99.90;;;;;;6244556;23;20027;-78
2021/07/10 10:39:39;;;;;;;8.80;7.85;;;26.20;99.90;;;;;;6244299;22;20039;-78
2021/07/10 10:42:11;;;;;;;9.05;8.15;;;26.20;99.90;;;;;;6243622;23;20417;-78
2021/07/10 10:44:42;;;;;;;11.98;8.75;;;26.00;99.90;;;;;;6244123;23;20102;-78
2021/07/10 10:47:11;;;;;;;15.20;9.17;;;26.00;99.90;;;;;;6244667;23;20095;-79
2021/07/10 10:49:47;;;;;;;11.38;8.98;;;26.20;99.90;;;;;;6244360;22;20026;-79
2021/07/10 10:52:32;;;;;;;10.45;8.98;;;26.30;99.90;;;;;;6244024;23;20027;-78
2021/07/10 10:55:01;;;;;;;10.68;8.77;;;26.40;99.90;;;;;;6245568;23;20020;-78
2021/07/10 10:57:37;;;;;;;11.40;9.20;;;26.40;99.90;;;;;;6246004;23;20024;-78
2021/07/10 11:00:14;;;;;;;10.30;8.77;;;26.20;99.90;;;;;;6245904;22;20020;-78
2021/07/10 11:02:57;;;;;;;13.38;9.40;;;26.20;99.90;;;;;;6245286;23;20016;-79
2021/07/10 11:05:50;;;;;;;;;;;26.00;99.90;;;;;;6246110;23;20526;-79
2021/07/10 11:08:36;;;;;;;11.30;8.73;;;25.90;99.90;;;;;;6245836;23;19959;-79
2021/07/10 11:11:28;;;;;;;9.55;8.20;;;25.90;99.90;;;;;;6244936;22;20111;-79
2021/07/10 11:14:12;;;;;;;9.65;8.52;;;26.00;99.90;;;;;;6222879;23;20471;-78
2021/07/10 11:17:02;;;;;;;10.60;7.85;;;26.00;99.90;;;;;;6245046;23;20032;-78
2021/07/10 11:19:49;;;;;;;10.35;8.98;;;26.00;99.90;;;;;;6245438;22;20100;-79
2021/07/10 11:23:00;;;;;;;10.43;8.25;;;26.00;99.90;;;;;;6245776;23;20086;-79
2021/07/10 11:26:09;;;;;;;11.05;8.75;;;26.00;99.90;;;;;;6245294;23;20019;-79
2021/07/10 11:28:55;;;;;;;14.45;10.07;;;26.20;99.90;;;;;;6244806;23;20087;-78
2021/07/10 11:31:28;;;;;;;10.77;9.65;;;26.20;99.90;;;;;;6245105;23;20375;-78
2021/07/10 11:34:01;;;;;;;10.77;9.60;;;26.00;99.90;;;;;;6244227;23;20032;-79
2021/07/10 11:36:57;;;;;;;12.05;10.05;;;26.10;99.90;;;;;;6244909;23;20028;-78
2021/07/10 11:39:57;;;;;;;10.48;9.38;;;26.10;99.90;;;;;;6245239;22;20020;-79
2021/07/10 11:42:50;;;;;;;11.57;9.82;;;26.30;99.90;;;;;;6245265;23;20024;-78
2021/07/10 11:45:34;;;;;;;10.85;9.63;;;26.40;99.90;;;;;;6244761;23;20027;-77
2021/07/10 11:48:24;;;;;;;11.43;9.52;;;26.40;99.90;;;;;;6245280;23;20082;-78
2021/07/10 11:51:11;;;;;;;10.13;8.63;;;26.50;99.90;;;;;;6245969;22;20425;-78
2021/07/10 11:53:41;;;;;;;11.70;9.25;;;26.50;99.90;;;;;;6243212;23;20028;-77
2021/07/10 11:56:09;;;;;;;12.02;9.15;;;26.30;99.90;;;;;;6245273;23;20028;-77
2021/07/10 11:58:40;;;;;;;13.13;8.18;;;26.20;99.90;;;;;;6244415;23;20024;-77
2021/07/10 12:01:13;;;;;;;11.00;8.13;;;26.20;99.90;;;;;;6243958;22;20190;-77
2021/07/10 12:03:40;;;;;;;11.32;8.90;;;26.20;99.90;;;;;;6244867;23;20016;-78
2021/07/10 12:06:08;;;;;;;9.70;8.75;;;26.40;99.90;;;;;;6244629;23;20028;-76
2021/07/10 12:08:35;;;;;;;10.60;8.50;;;26.50;99.90;;;;;;6247988;23;20020;-78
2021/07/10 12:11:02;;;;;;;12.57;9.23;;;26.60;99.90;;;;;;6244332;22;20024;-77
2021/07/10 12:13:31;;;;;;;10.40;8.75;;;26.70;99.90;;;;;;6243865;23;20020;-77
2021/07/10 12:16:00;;;;;;;10.48;8.65;;;26.60;99.90;;;;;;6244014;23;20099;-76
2021/07/10 12:18:32;;;;;;;9.25;7.57;;;26.70;99.90;;;;;;6244483;23;20123;-79
2021/07/10 12:21:01;;;;;;;9.75;7.40;;;26.80;99.90;;;;;;6244053;22;20106;-78
2021/07/10 12:23:29;;;;;;;8.68;7.65;;;26.80;99.90;;;;;;6244322;23;20024;-78
2021/07/10 12:25:58;;;;;;;9.25;8.23;;;26.70;99.90;;;;;;6244624;23;20329;-78
2021/07/10 12:28:33;;;;;;;12.02;8.35;;;26.60;99.90;;;;;;6244795;23;20707;-78
2021/07/10 12:31:02;;;;;;;8.73;7.82;;;26.50;99.90;;;;;;6244695;22;20106;-78
2021/07/10 12:33:42;;;;;;;14.98;11.68;;;26.40;99.90;;;;;;6244227;23;20095;-78
2021/07/10 12:36:13;;;;;;;54.20;24.08;;;26.20;99.90;;;;;;6244281;23;20508;-77
2021/07/10 12:38:54;;;;;;;10.38;9.05;;;25.90;99.90;;;;;;6243936;23;20043;-80
2021/07/10 12:41:25;;;;;;;13.73;9.02;;;25.80;99.90;;;;;;6244248;23;20103;-78
2021/07/10 12:43:53;;;;;;;10.75;8.32;;;25.70;99.90;;;;;;6243916;23;20016;-78
2021/07/10 12:46:20;;;;;;;9.52;8.30;;;25.50;99.90;;;;;;6243978;23;20533;-78
2021/07/10 12:48:49;;;;;;;9.65;8.52;;;25.50;99.90;;;;;;6244265;22;20062;-79
2021/07/10 12:51:16;;;;;;;8.82;7.68;;;25.50;99.90;;;;;;6244396;23;20358;-78
2021/07/10 12:53:47;;;;;;;11.43;8.57;;;25.50;99.90;;;;;;6243968;23;20049;-76
2021/07/10 12:56:27;;;;;;;9.55;8.38;;;25.50;99.90;;;;;;6244863;23;20023;-78
2021/07/10 12:58:55;;;;;;;11.82;7.88;;;25.60;99.90;;;;;;6243754;22;20075;-77
2021/07/10 13:01:31;;;;;;;15.10;9.40;;;25.80;99.90;;;;;;6244302;23;20024;-77
2021/07/10 13:03:59;;;;;;;9.48;7.97;;;25.70;99.90;;;;;;6243665;23;20340;-80
2021/07/10 13:06:28;;;;;;;9.07;8.05;;;25.80;99.90;;;;;;6243934;23;20102;-78
2021/07/10 13:08:57;;;;;;;9.45;8.38;;;26.00;99.90;;;;;;6244717;22;20020;-77
2021/07/10 13:11:26;;;;;;;9.48;8.50;;;26.10;99.90;;;;;;6244226;23;20031;-78
2021/07/10 13:13:56;;;;;;;9.45;8.18;;;26.20;99.90;;;;;;6242993;23;20074;-78
2021/07/10 13:16:25;;;;;;;10.27;8.27;;;26.60;99.90;;;;;;6242716;23;20044;-78
2021/07/10 13:18:54;;;;;;;9.50;7.97;;;26.80;99.90;;;;;;6243417;22;20024;-78
2021/07/10 13:21:24;;;;;;;9.52;8.57;;;26.90;99.90;;;;;;6243457;23;20047;-78
2021/07/10 13:23:55;;;;;;;10.05;8.40;;;26.80;99.90;;;;;;6242801;23;20023;-78